Time;durP1;ratioP1;P1;durP2;ratioP2;P2;SDS_P1;SDS_P2;PMS_P1;PMS_P2;Temp;Humidity;BMP_temperature;BMP_pressure;BME280_temperature;BME280_humidity;BME280_pressure;Samples;Min_cycle;Max_cycle;Signal;HPM_P1;HPM_P2
2021/01/02 00:00:22;;;;;;;20.83;12.20;;;;;;;1.03;94.54;100451.69;4942287;28;20062;-52
2021/01/02 00:03:12;;;;;;;19.15;10.52;;;;;;;1.38;92.54;100450.38;4940980;28;20134;-47
2021/01/02 00:05:56;;;;;;;19.02;11.57;;;;;;;1.28;92.29;100446.44;4943698;28;20039;-46
2021/01/02 00:08:26;;;;;;;17.92;11.10;;;;;;;1.00;93.92;100446.47;4943578;28;20050;-49
2021/01/02 00:11:19;;;;;;;18.38;10.35;;;;;;;1.46;91.08;100451.69;4944316;28;20055;-49
2021/01/02 00:14:07;;;;;;;15.43;9.35;;;;;;;1.23;91.63;100447.84;4938634;28;20039;-48
2021/01/02 00:17:03;;;;;;;16.77;9.45;;;;;;;1.56;89.70;100446.38;4940986;28;20051;-45
2021/01/02 00:20:22;;;;;;;18.48;10.55;;;;;;;1.44;89.84;100448.22;4939073;28;20086;-46
2021/01/02 00:22:53;;;;;;;18.88;12.23;;;;;;;1.28;90.40;100451.50;4934381;28;20557;-45
2021/01/02 00:25:24;;;;;;;22.23;11.40;;;;;;;1.16;90.70;100455.84;4939141;28;20050;-50
2021/01/02 00:27:59;;;;;;;20.90;12.23;;;;;;;1.18;90.96;100455.13;4940399;28;21020;-50
2021/01/02 00:30:49;;;;;;;20.77;11.65;;;;;;;1.10;91.43;100458.84;4940505;28;20631;-47
2021/01/02 00:33:21;;;;;;;20.17;11.63;;;;;;;0.60;93.21;100454.16;4922800;28;20054;-46
2021/01/02 00:35:49;;;;;;;24.58;12.70;;;;;;;0.75;93.99;100465.16;4939950;28;20460;-48
2021/01/02 00:38:16;;;;;;;24.48;13.43;;;;;;;0.38;95.17;100464.56;4940322;28;20055;-50
2021/01/02 00:40:43;;;;;;;25.77;13.00;;;;;;;0.36;96.32;100462.69;4937663;28;20051;-46
2021/01/02 00:43:09;;;;;;;23.38;12.68;;;;;;;0.29;96.58;100473.19;4946039;28;20091;-47
2021/01/02 00:45:36;;;;;;;24.05;13.35;;;;;;;0.32;96.72;100470.81;4944399;28;20130;-46
2021/01/02 00:48:05;;;;;;;24.95;13.88;;;;;;;0.52;95.72;100470.44;4942645;28;20051;-49
2021/01/02 00:50:32;;;;;;;28.90;13.45;;;;;;;0.22;95.82;100472.78;4940366;28;20449;-48
2021/01/02 00:53:20;;;;;;;27.05;14.18;;;;;;;0.47;95.35;100464.25;4942611;28;20089;-45
2021/01/02 00:55:53;;;;;;;21.88;13.15;;;;;;;0.30;94.83;100478.28;4938364;28;20043;-46
2021/01/02 00:58:22;;;;;;;24.92;13.85;;;;;;;0.43;95.18;100467.34;4938987;28;20942;-47
2021/01/02 01:01:19;;;;;;;23.33;13.98;;;;;;;0.43;94.14;100472.38;4942346;28;20048;-49
2021/01/02 01:04:29;;;;;;;27.33;14.15;;;;;;;0.38;95.06;100472.09;4939408;28;20043;-47
2021/01/02 01:06:59;;;;;;;25.50;13.93;;;;;;;0.37;95.05;100477.91;4944827;28;20102;-46
2021/01/02 01:09:27;;;;;;;28.35;15.35;;;;;;;0.35;95.61;100471.03;4943451;28;20294;-47
2021/01/02 01:11:55;;;;;;;31.00;16.73;;;;;;;0.34;95.98;100471.81;4940434;28;20058;-52
2021/01/02 01:14:22;;;;;;;32.08;18.55;;;;;;;0.34;96.58;100481.88;4938912;28;20051;-47
2021/01/02 01:16:55;;;;;;;36.13;18.67;;;;;;;0.30;96.82;100484.97;4944842;28;20398;-47
2021/01/02 01:19:27;;;;;;;35.28;19.00;;;;;;;0.30;96.99;100484.97;4941019;28;20121;-50
2021/01/02 01:22:01;;;;;;;33.55;18.67;;;;;;;0.23;97.35;100483.72;4940929;28;20048;-45
2021/01/02 01:24:59;;;;;;;37.55;19.17;;;;;;;0.20;97.76;100486.06;4937272;28;20047;-50
2021/01/02 01:27:53;;;;;;;40.63;18.58;;;;;;;0.20;97.68;100483.53;4937414;28;20133;-50
2021/01/02 01:30:23;;;;;;;40.47;19.55;;;;;;;-0.02;98.46;100488.84;4939529;28;20726;-46
2021/01/02 01:33:02;;;;;;;39.88;19.55;;;;;;;0.02;99.01;100485.75;4939747;28;20048;-51
2021/01/02 01:35:30;;;;;;;40.92;19.75;;;;;;;0.18;98.40;100490.97;4937244;28;20058;-48
2021/01/02 01:37:58;;;;;;;40.22;20.73;;;;;;;0.10;98.19;100493.81;4943210;28;20051;-47
2021/01/02 01:40:31;;;;;;;40.58;20.55;;;;;;;0.03;98.25;100491.66;4939214;28;20057;-48
2021/01/02 01:43:06;;;;;;;38.67;19.10;;;;;;;0.06;98.50;100487.69;4940344;28;20048;-45
2021/01/02 01:45:39;;;;;;;40.53;20.23;;;;;;;-0.08;98.49;100493.50;4936659;28;20039;-48
2021/01/02 01:48:10;;;;;;;38.17;20.88;;;;;;;-0.07;98.97;100497.75;4941582;28;20059;-50
2021/01/02 01:50:47;;;;;;;42.70;20.40;;;;;;;0.01;98.93;100498.25;4944622;28;20051;-45
2021/01/02 01:53:32;;;;;;;43.50;20.42;;;;;;;0.04;98.58;100496.78;4944596;28;20043;-47
2021/01/02 01:56:08;;;;;;;45.55;20.35;;;;;;;0.00;98.97;100497.38;4947250;28;20055;-47
2021/01/02 01:58:52;;;;;;;43.65;21.17;;;;;;;0.00;98.75;100497.38;4946239;28;20047;-45
2021/01/02 02:01:26;;;;;;;41.15;20.27;;;;;;;-0.07;98.86;100500.25;4941574;28;20058;-47
2021/01/02 02:04:25;;;;;;;44.15;21.88;;;;;;;-0.16;99.11;100502.19;4945387;28;20051;-49
2021/01/02 02:06:59;;;;;;;39.97;20.85;;;;;;;-0.08;99.38;100499.38;4943516;28;20063;-48
2021/01/02 02:10:00;;;;;;;45.65;22.15;;;;;;;-0.24;99.86;100496.63;4942864;28;20046;-50
2021/01/02 02:12:32;;;;;;;39.70;19.55;;;;;;;-0.44;100.00;100507.91;4940299;28;20066;-47
2021/01/02 02:15:07;;;;;;;40.42;19.58;;;;;;;-0.44;100.00;100502.00;4943689;28;20042;-47
2021/01/02 02:17:45;;;;;;;52.10;22.02;;;;;;;-0.60;100.00;100502.63;4944363;28;20413;-49
2021/01/02 02:20:18;;;;;;;42.28;20.20;;;;;;;-0.86;100.00;100494.22;4945603;28;20058;-45
2021/01/02 02:22:45;;;;;;;36.78;18.58;;;;;;;-0.61;100.00;100498.34;4940120;28;20051;-54
2021/01/02 02:25:16;;;;;;;41.67;20.45;;;;;;;-0.28;100.00;100493.06;4945325;28;20055;-47
2021/01/02 02:27:46;;;;;;;39.17;19.98;;;;;;;-0.60;100.00;100497.59;4941250;28;20048;-52
2021/01/02 02:30:15;;;;;;;39.65;20.10;;;;;;;-0.52;100.00;100499.84;4948954;28;20047;-49
2021/01/02 02:32:47;;;;;;;45.92;22.52;;;;;;;-0.86;100.00;100501.75;4941121;28;20507;-47
2021/01/02 02:35:16;;;;;;;40.50;20.73;;;;;;;-0.90;100.00;100496.41;4946170;28;20050;-46
2021/01/02 02:37:49;;;;;;;46.17;20.27;;;;;;;-0.70;100.00;100500.25;4942501;28;20258;-46
2021/01/02 02:40:18;;;;;;;45.65;22.10;;;;;;;-1.03;100.00;100502.22;4947788;28;20055;-48
2021/01/02 02:43:02;;;;;;;41.58;20.00;;;;;;;-0.82;100.00;100497.81;4943987;28;20418;-49
2021/01/02 02:45:30;;;;;;;43.40;21.50;;;;;;;-0.90;100.00;100496.41;4946409;28;20490;-50
2021/01/02 02:48:00;;;;;;;49.03;21.05;;;;;;;-1.20;100.00;100506.13;4945587;28;20101;-51
2021/01/02 02:50:28;;;;;;;44.75;20.88;;;;;;;-1.05;100.00;100513.84;4946402;28;20043;-47
2021/01/02 02:53:06;;;;;;;44.95;22.05;;;;;;;-0.97;100.00;100515.25;4942963;28;20063;-46
2021/01/02 02:55:40;;;;;;;43.35;21.58;;;;;;;-1.00;100.00;100514.16;4943699;28;20488;-47
2021/01/02 02:58:07;;;;;;;43.17;19.98;;;;;;;-0.99;100.00;100510.88;4944144;28;20413;-48
2021/01/02 03:00:35;;;;;;;47.80;22.10;;;;;;;-1.08;100.00;100509.47;4943887;28;20054;-49
2021/01/02 03:03:02;;;;;;;42.65;22.02;;;;;;;-1.03;100.00;100515.66;4946525;28;20450;-46
2021/01/02 03:05:30;;;;;;;47.03;22.10;;;;;;;-1.22;100.00;100515.16;4943568;28;20054;-50
2021/01/02 03:07:57;;;;;;;46.92;21.55;;;;;;;-1.39;100.00;100521.50;4942446;28;20514;-50
2021/01/02 03:10:25;;;;;;;45.40;21.67;;;;;;;-1.41;100.00;100525.56;4944313;28;20047;-46
2021/01/02 03:12:53;;;;;;;45.10;21.20;;;;;;;-1.46;100.00;100516.84;4941744;28;20055;-49
2021/01/02 03:15:30;;;;;;;46.47;21.08;;;;;;;-1.50;100.00;100514.00;4943576;28;20073;-48
2021/01/02 03:17:57;;;;;;;46.33;21.67;;;;;;;-1.38;100.00;100514.88;4942463;28;20059;-47
2021/01/02 03:20:24;;;;;;;50.58;22.92;;;;;;;-1.58;100.00;100513.47;4945339;28;20066;-45
2021/01/02 03:22:50;;;;;;;45.35;21.67;;;;;;;-1.62;100.00;100519.94;4943220;28;20060;-50
2021/01/02 03:25:17;;;;;;;51.10;22.75;;;;;;;-1.58;100.00;100511.81;4942928;28;20050;-47
2021/01/02 03:27:44;;;;;;;46.88;22.23;;;;;;;-1.75;100.00;100521.44;4943074;28;20054;-48
2021/01/02 03:30:14;;;;;;;47.55;23.33;;;;;;;-1.78;100.00;100516.19;4947479;28;20047;-49
2021/01/02 03:32:41;;;;;;;60.95;25.35;;;;;;;-1.84;100.00;100517.50;4942918;28;20051;-49
2021/01/02 03:35:13;;;;;;;46.95;22.30;;;;;;;-1.47;100.00;100515.09;4940537;28;20055;-47
2021/01/02 03:37:45;;;;;;;55.22;24.10;;;;;;;-1.76;100.00;100522.19;4941289;28;20043;-48
2021/01/02 03:40:13;;;;;;;48.00;23.83;;;;;;;-1.56;100.00;100525.38;4940068;28;20051;-44
2021/01/02 03:42:47;;;;;;;51.65;23.58;;;;;;;-1.66;100.00;100524.63;4936337;28;20055;-51
2021/01/02 03:45:16;;;;;;;54.55;23.88;;;;;;;-1.89;100.00;100526.34;4944187;28;20051;-51
2021/01/02 03:47:46;;;;;;;54.10;23.52;;;;;;;-1.92;100.00;100537.78;4939619;28;20051;-49
2021/01/02 03:50:14;;;;;;;50.08;22.33;;;;;;;-1.78;100.00;100531.25;4945469;28;20585;-48
2021/01/02 03:52:41;;;;;;;50.63;22.33;;;;;;;-1.42;100.00;100531.38;4938616;28;20051;-45
2021/01/02 03:55:10;;;;;;;43.38;20.88;;;;;;;-1.34;100.00;100527.75;4947683;28;20482;-45
2021/01/02 03:57:37;;;;;;;45.78;22.77;;;;;;;-1.14;100.00;100530.78;4938116;28;20051;-47
2021/01/02 04:00:05;;;;;;;46.38;23.10;;;;;;;-1.08;100.00;100526.16;4943930;28;20069;-50
2021/01/02 04:02:32;;;;;;;45.55;22.27;;;;;;;-0.99;100.00;100525.94;4941154;28;20053;-50
2021/01/02 04:04:59;;;;;;;43.67;21.60;;;;;;;-1.20;100.00;100540.38;4942384;28;20040;-48
2021/01/02 04:07:26;;;;;;;48.67;22.50;;;;;;;-1.21;100.00;100534.50;4944506;28;20047;-49
2021/01/02 04:09:52;;;;;;;46.55;22.77;;;;;;;-1.12;100.00;100530.09;4939610;28;20063;-53
2021/01/02 04:12:19;;;;;;;43.40;21.48;;;;;;;-1.04;100.00;100533.16;4942632;28;20058;-45
2021/01/02 04:14:45;;;;;;;40.05;20.42;;;;;;;-0.76;100.00;100533.41;4943485;28;20440;-46
2021/01/02 04:17:12;;;;;;;42.13;21.67;;;;;;;-1.19;100.00;100542.16;4941578;28;20047;-46
2021/01/02 04:19:38;;;;;;;42.53;20.95;;;;;;;-1.18;100.00;100542.25;4937251;28;20051;-48
2021/01/02 04:22:05;;;;;;;43.15;21.00;;;;;;;-1.22;100.00;100541.94;4941921;28;20770;-48
2021/01/02 04:24:31;;;;;;;41.25;20.63;;;;;;;-1.04;100.00;100543.22;4937039;28;20518;-50
2021/01/02 04:27:00;;;;;;;39.53;19.48;;;;;;;-0.99;100.00;100546.91;4943987;28;20047;-46
2021/01/02 04:29:28;;;;;;;43.75;20.75;;;;;;;-1.16;100.00;100547.38;4943167;28;20481;-47
2021/01/02 04:31:55;;;;;;;40.33;20.92;;;;;;;-0.98;100.00;100543.63;4942894;28;20098;-50
2021/01/02 04:34:23;;;;;;;37.60;18.92;;;;;;;-1.11;100.00;100553.59;4942646;28;20058;-47
2021/01/02 04:36:49;;;;;;;41.95;20.75;;;;;;;-0.79;100.00;100549.16;4940605;28;20051;-52
2021/01/02 04:39:17;;;;;;;36.50;18.60;;;;;;;-0.81;100.00;100547.31;4942800;28;20055;-48
2021/01/02 04:41:43;;;;;;;37.63;19.52;;;;;;;-0.86;100.00;100549.50;4941057;28;20062;-47
2021/01/02 04:44:10;;;;;;;36.13;19.13;;;;;;;-0.68;99.62;100552.41;4947644;28;20056;-45
2021/01/02 04:46:38;;;;;;;35.85;19.40;;;;;;;-0.82;98.99;100550.59;4941575;28;20055;-45
2021/01/02 04:49:05;;;;;;;38.10;19.13;;;;;;;-1.12;99.77;100554.34;4947582;28;20070;-49
2021/01/02 04:51:31;;;;;;;41.78;19.75;;;;;;;-1.45;100.00;100555.38;4940385;28;20043;-50
2021/01/02 04:54:05;;;;;;;35.83;18.70;;;;;;;-1.21;100.00;100556.22;4943007;28;20047;-48
2021/01/02 04:56:33;;;;;;;36.03;18.58;;;;;;;-1.07;100.00;100555.56;4939150;28;20051;-50
2021/01/02 04:59:06;;;;;;;39.03;19.75;;;;;;;-0.85;99.77;100557.91;4940811;28;20114;-49
2021/01/02 05:01:39;;;;;;;34.22;18.38;;;;;;;-1.21;100.00;100559.59;4938974;28;20081;-45
2021/01/02 05:04:07;;;;;;;37.60;19.23;;;;;;;-1.03;99.78;100555.88;4944712;28;20059;-50
2021/01/02 05:06:34;;;;;;;35.63;18.30;;;;;;;-1.24;99.47;100561.06;4942357;28;20501;-50
2021/01/02 05:09:05;;;;;;;33.92;18.90;;;;;;;-1.30;100.00;100562.34;4946362;28;20056;-47
2021/01/02 05:11:36;;;;;;;42.58;20.58;;;;;;;-1.37;100.00;100564.34;4951001;28;20043;-47
2021/01/02 05:14:05;;;;;;;39.33;19.80;;;;;;;-1.60;100.00;100565.22;4941833;28;20051;-47
2021/01/02 05:16:42;;;;;;;37.90;19.00;;;;;;;-1.52;100.00;100564.13;4940887;28;20073;-51
2021/01/02 05:19:11;;;;;;;38.58;19.02;;;;;;;-1.25;100.00;100566.81;4942830;28;20043;-47
2021/01/02 05:21:43;;;;;;;38.22;18.50;;;;;;;-1.39;100.00;100568.34;4939157;28;20055;-45
2021/01/02 05:24:14;;;;;;;39.90;19.85;;;;;;;-1.03;100.00;100570.06;4942597;28;20504;-47
2021/01/02 05:26:45;;;;;;;36.50;18.35;;;;;;;-0.86;99.70;100572.13;4943114;28;20055;-46
2021/01/02 05:29:16;;;;;;;38.17;19.50;;;;;;;-0.81;98.33;100573.31;4944403;28;20051;-45
2021/01/02 05:31:47;;;;;;;37.20;18.73;;;;;;;-1.39;99.73;100585.94;4945618;28;20593;-47
2021/01/02 05:34:15;;;;;;;36.97;18.80;;;;;;;-1.37;100.00;100586.94;4947401;28;20505;-50
2021/01/02 05:36:42;;;;;;;34.50;18.60;;;;;;;-1.54;100.00;100583.22;4942300;28;20062;-49
2021/01/02 05:39:11;;;;;;;38.45;19.00;;;;;;;-1.48;100.00;100590.31;4940129;28;20430;-50
2021/01/02 05:41:55;;;;;;;37.88;19.05;;;;;;;-1.38;100.00;100595.25;4946228;28;20079;-45
2021/01/02 05:44:22;;;;;;;36.03;19.05;;;;;;;-1.71;100.00;100591.16;4943328;28;20050;-51
2021/01/02 05:46:54;;;;;;;32.53;17.67;;;;;;;-1.77;100.00;100601.63;4946724;28;20406;-46
2021/01/02 05:49:41;;;;;;;35.65;18.35;;;;;;;-1.56;100.00;100595.66;4941757;28;20062;-48
2021/01/02 05:52:12;;;;;;;32.40;17.42;;;;;;;-1.60;100.00;100590.31;4945731;28;20285;-48
2021/01/02 05:54:48;;;;;;;35.45;17.38;;;;;;;-1.30;100.00;100597.50;4942086;28;20055;-49
2021/01/02 05:57:29;;;;;;;34.45;17.90;;;;;;;-1.78;100.00;100599.00;4945052;28;20058;-48
2021/01/02 05:59:58;;;;;;;35.30;18.75;;;;;;;-1.54;100.00;100598.28;4944852;28;20351;-47
2021/01/02 06:02:26;;;;;;;32.88;18.15;;;;;;;-1.73;100.00;100605.25;4944019;28;20048;-47
2021/01/02 06:05:00;;;;;;;35.22;18.20;;;;;;;-2.19;100.00;100606.88;4943479;28;20055;-46
2021/01/02 06:07:32;;;;;;;40.45;18.95;;;;;;;-2.27;100.00;100603.78;4943211;28;20051;-46
2021/01/02 06:10:00;;;;;;;43.72;20.42;;;;;;;-1.66;100.00;100610.84;4942357;28;20051;-46
2021/01/02 06:12:31;;;;;;;39.35;20.00;;;;;;;-1.78;100.00;100616.59;4943105;28;20055;-48
2021/01/02 06:15:01;;;;;;;33.42;18.05;;;;;;;-1.27;100.00;100611.06;4944157;28;20054;-48
2021/01/02 06:17:33;;;;;;;36.30;19.17;;;;;;;-1.42;99.47;100619.25;4941732;28;20047;-45
2021/01/02 06:20:01;;;;;;;34.20;17.70;;;;;;;-1.65;100.00;100617.59;4945309;28;20079;-45
2021/01/02 06:22:30;;;;;;;35.15;18.63;;;;;;;-1.66;99.92;100610.84;4943263;28;20051;-44
2021/01/02 06:24:57;;;;;;;40.55;18.73;;;;;;;-1.67;100.00;100613.22;4944435;28;20044;-50
2021/01/02 06:27:25;;;;;;;37.05;19.02;;;;;;;-1.61;99.89;100617.06;4942505;28;20047;-47
2021/01/02 06:29:57;;;;;;;36.85;19.10;;;;;;;-1.47;100.00;100619.69;4942011;28;20044;-45
2021/01/02 06:32:27;;;;;;;37.35;19.30;;;;;;;-1.43;99.52;100619.13;4943757;28;20313;-45
2021/01/02 06:35:08;;;;;;;34.88;18.33;;;;;;;-1.47;99.93;100625.59;4942092;28;20059;-47
2021/01/02 06:37:47;;;;;;;33.38;17.10;;;;;;;-1.64;99.45;100624.34;4942797;28;20048;-51
2021/01/02 06:40:37;;;;;;;38.25;18.83;;;;;;;-1.68;100.00;100626.53;4946989;28;20520;-48
2021/01/02 06:43:08;;;;;;;35.28;17.75;;;;;;;-1.62;99.32;100626.97;4943228;28;20052;-50
2021/01/02 06:45:35;;;;;;;37.90;18.50;;;;;;;-1.81;99.59;100630.63;4946504;28;20077;-44
2021/01/02 06:48:17;;;;;;;33.47;17.45;;;;;;;-2.04;99.95;100638.09;4944377;28;20059;-49
2021/01/02 06:50:44;;;;;;;39.63;18.98;;;;;;;-2.14;100.00;100638.19;4941529;28;20071;-48
2021/01/02 06:53:22;;;;;;;38.15;17.45;;;;;;;-1.68;100.00;100639.94;4946519;28;20058;-49
2021/01/02 06:56:16;;;;;;;34.10;16.90;;;;;;;-1.76;99.69;100647.66;4942228;28;20043;-49
2021/01/02 06:58:50;;;;;;;40.00;18.33;;;;;;;-1.82;99.73;100650.63;4943343;28;20048;-46
2021/01/02 07:01:16;;;;;;;36.00;16.52;;;;;;;-1.96;99.82;100658.75;4944185;28;20465;-52
2021/01/02 07:03:50;;;;;;;38.38;18.40;;;;;;;-1.87;100.00;100662.81;4941288;28;20855;-44
2021/01/02 07:06:17;;;;;;;40.35;17.88;;;;;;;-1.76;99.52;100663.59;4942060;28;20154;-48
2021/01/02 07:09:00;;;;;;;38.05;18.10;;;;;;;-1.57;99.45;100664.22;4940740;28;20832;-44
2021/01/02 07:11:31;;;;;;;34.95;16.92;;;;;;;-1.40;98.49;100667.94;4940624;28;20584;-45
2021/01/02 07:14:09;;;;;;;35.53;15.82;;;;;;;-1.36;97.73;100669.03;4940973;28;20505;-44
2021/01/02 07:16:55;;;;;;;39.60;17.55;;;;;;;-2.02;99.63;100681.75;4939587;28;20044;-49
2021/01/02 07:22:03;;;;;;;35.35;15.90;;;;;;;-1.24;99.39;100679.13;4938935;28;20051;-48
2021/01/02 07:24:36;;;;;;;31.75;15.68;;;;;;;-1.70;98.78;100676.63;4940888;28;20047;-43
2021/01/02 07:27:06;;;;;;;36.15;15.75;;;;;;;-1.37;99.38;100685.75;4948226;28;20452;-43
2021/01/02 07:29:36;;;;;;;37.38;15.48;;;;;;;-1.12;97.34;100678.34;4942985;28;20069;-45
2021/01/02 07:32:08;;;;;;;32.40;15.60;;;;;;;-1.04;95.55;100683.91;4941664;28;20540;-45
2021/01/02 07:34:35;;;;;;;30.63;15.38;;;;;;;-1.29;97.23;100699.75;4940960;28;20047;-44
2021/01/02 07:37:06;;;;;;;28.52;15.00;;;;;;;-1.67;98.50;100698.56;4941835;28;20055;-45
2021/01/02 07:39:33;;;;;;;34.30;15.40;;;;;;;-1.19;98.28;100700.41;4942681;28;20413;-47
2021/01/02 07:42:10;;;;;;;27.77;15.43;;;;;;;-1.34;97.70;100708.59;4952730;28;20054;-45
2021/01/02 07:44:38;;;;;;;31.58;15.70;;;;;;;-1.77;99.02;100714.56;4942294;28;20874;-45
2021/01/02 07:47:06;;;;;;;35.65;17.23;;;;;;;-1.75;98.92;100703.03;4943705;28;20070;-43
2021/01/02 07:49:33;;;;;;;35.63;17.55;;;;;;;-1.63;98.72;100713.09;4944901;28;20053;-46
2021/01/02 07:52:01;;;;;;;31.33;14.73;;;;;;;-1.42;99.29;100711.31;4944129;28;20143;-51
2021/01/02 07:54:32;;;;;;;35.47;15.98;;;;;;;-1.65;98.61;100714.63;4947087;28;20526;-50
2021/01/02 07:56:59;;;;;;;33.35;15.45;;;;;;;-1.39;98.81;100714.88;4944089;28;20110;-48
2021/01/02 07:59:32;;;;;;;28.45;14.27;;;;;;;-1.48;97.04;100723.38;4943451;28;20500;-45
2021/01/02 08:02:10;;;;;;;31.17;14.88;;;;;;;-1.25;97.53;100720.06;4942446;28;20490;-44
2021/01/02 08:04:37;;;;;;;28.55;14.35;;;;;;;-1.72;98.13;100729.97;4941687;28;20059;-43
2021/01/02 08:07:06;;;;;;;32.88;16.80;;;;;;;-1.38;97.76;100725.84;4947688;28;20529;-45
2021/01/02 08:09:34;;;;;;;31.48;16.23;;;;;;;-1.41;97.69;100728.97;4942026;28;20051;-44
2021/01/02 08:12:05;;;;;;;34.50;16.20;;;;;;;-1.45;97.33;100724.50;4946626;28;20059;-43
2021/01/02 08:14:34;;;;;;;32.28;15.90;;;;;;;-1.58;98.23;100730.22;4941802;28;20146;-45
2021/01/02 08:17:06;;;;;;;33.83;16.35;;;;;;;-1.52;98.13;100728.97;4943789;28;20059;-45
2021/01/02 08:19:48;;;;;;;31.65;15.50;;;;;;;-1.47;99.05;100728.53;4938067;28;20113;-44
2021/01/02 08:22:26;;;;;;;35.30;16.92;;;;;;;-1.27;97.83;100736.66;4946048;28;20049;-42
2021/01/02 08:24:56;;;;;;;31.10;15.40;;;;;;;-1.23;96.90;100733.59;4939283;28;20130;-43
2021/01/02 08:27:23;;;;;;;31.50;15.38;;;;;;;-1.53;98.91;100725.56;4939278;28;20039;-41
2021/01/02 08:29:51;;;;;;;36.08;14.43;;;;;;;-1.50;97.17;100725.78;4940365;28;20063;-42
2021/01/02 08:32:20;;;;;;;32.03;15.82;;;;;;;-1.64;98.79;100736.44;4940597;28;20501;-44
2021/01/02 08:34:47;;;;;;;33.67;15.88;;;;;;;-1.22;98.91;100732.84;4943778;28;20050;-45
2021/01/02 08:37:17;;;;;;;34.17;15.75;;;;;;;-0.87;97.34;100733.75;4947413;28;20407;-46
2021/01/02 08:40:02;;;;;;;40.67;15.45;;;;;;;-0.85;96.72;100739.75;4942669;28;20396;-44
2021/01/02 08:42:40;;;;;;;28.70;15.30;;;;;;;-0.89;96.21;100741.94;4944152;28;20077;-45
2021/01/02 08:45:09;;;;;;;30.63;14.73;;;;;;;-0.56;96.83;100743.47;4946500;28;20058;-45
2021/01/02 08:47:36;;;;;;;27.13;14.77;;;;;;;-0.67;95.58;100747.75;4944236;28;20047;-43
2021/01/02 08:50:14;;;;;;;34.88;15.85;;;;;;;-1.38;98.67;100743.41;4946085;28;20537;-44
2021/01/02 08:52:44;;;;;;;32.38;16.10;;;;;;;-1.56;100.00;100745.44;4942629;28;20047;-44
2021/01/02 08:55:15;;;;;;;32.47;16.38;;;;;;;-0.92;99.27;100750.16;4949593;28;20086;-45
2021/01/02 08:57:46;;;;;;;29.70;15.43;;;;;;;-1.14;99.05;100756.91;4943549;28;20191;-50
2021/01/02 09:00:18;;;;;;;40.33;18.45;;;;;;;-1.11;100.00;100749.56;4946642;28;20130;-46
2021/01/02 09:02:47;;;;;;;53.70;18.60;;;;;;;-1.16;100.00;100756.75;4938508;28;20048;-47
2021/01/02 09:05:25;;;;;;;85.30;17.52;;;;;;;-1.21;98.48;100763.09;4945729;28;20050;-49
2021/01/02 09:07:56;;;;;;;46.20;17.27;;;;;;;-0.69;97.39;100760.97;4945025;28;20048;-45
2021/01/02 09:10:27;;;;;;;37.42;17.75;;;;;;;-1.33;100.00;100748.00;4951315;28;20047;-46
2021/01/02 09:13:12;;;;;;;33.10;16.65;;;;;;;-0.70;100.00;100760.09;4945534;28;20394;-45
2021/01/02 09:15:57;;;;;;;39.42;17.33;;;;;;;-1.03;97.99;100763.56;4947175;28;20589;-45
2021/01/02 09:18:28;;;;;;;34.92;18.08;;;;;;;-0.99;100.00;100763.03;4944086;28;20588;-46
2021/01/02 09:21:10;;;;;;;41.35;17.65;;;;;;;-0.99;100.00;100763.03;4945134;28;20506;-45
2021/01/02 09:23:49;;;;;;;32.67;15.73;;;;;;;-0.52;100.00;100760.53;4947869;28;20087;-47
2021/01/02 09:26:35;;;;;;;32.00;16.55;;;;;;;-0.52;98.62;100770.59;4947747;28;20055;-45
2021/01/02 09:29:12;;;;;;;22.05;11.75;;;;;;;-0.82;99.76;100774.31;4951043;28;20141;-44
2021/01/02 09:31:39;;;;;;;31.58;16.30;;;;;;;-1.01;100.00;100773.75;4944519;28;20039;-44
2021/01/02 09:34:06;;;;;;;31.48;17.10;;;;;;;-0.59;100.00;100779.34;4945464;28;20055;-44
2021/01/02 09:36:32;;;;;;;31.80;16.65;;;;;;;-0.28;99.54;100776.47;4949645;28;20414;-45
2021/01/02 09:39:00;;;;;;;32.00;16.95;;;;;;;-0.29;96.37;100780.63;4946596;28;20051;-47
2021/01/02 09:41:28;;;;;;;31.13;17.40;;;;;;;0.10;95.73;100784.16;4951634;28;20502;-45
2021/01/02 09:43:56;;;;;;;32.97;16.60;;;;;;;0.31;93.54;100782.22;4943602;28;20052;-44
2021/01/02 09:46:26;;;;;;;31.42;16.52;;;;;;;0.21;95.76;100780.72;4943660;28;20061;-44
2021/01/02 09:48:54;;;;;;;29.73;15.90;;;;;;;0.38;94.28;100775.97;4944520;28;20044;-45
2021/01/02 09:51:25;;;;;;;31.10;17.55;;;;;;;0.09;95.34;100784.03;4943438;28;20055;-50
2021/01/02 09:53:52;;;;;;;29.20;16.88;;;;;;;0.05;97.17;100787.13;4946234;28;20047;-45
2021/01/02 09:56:19;;;;;;;29.45;16.85;;;;;;;-0.07;97.79;100785.50;4949462;28;20566;-47
2021/01/02 09:58:46;;;;;;;32.38;17.15;;;;;;;-0.07;97.83;100787.16;4945414;28;20051;-46
2021/01/02 10:01:16;;;;;;;34.38;18.40;;;;;;;-0.04;98.21;100785.75;4946837;28;20054;-46
2021/01/02 10:03:44;;;;;;;32.38;17.92;;;;;;;0.55;96.87;100783.00;4949413;28;20059;-44
2021/01/02 10:06:12;;;;;;;33.38;17.65;;;;;;;0.27;95.15;100782.78;4949517;28;20059;-46
2021/01/02 10:08:40;;;;;;;29.00;17.48;;;;;;;0.46;95.23;100777.34;4943803;28;20589;-47
2021/01/02 10:11:07;;;;;;;31.77;17.55;;;;;;;0.31;97.26;100779.72;4941734;28;20052;-44
2021/01/02 10:13:33;;;;;;;29.30;16.88;;;;;;;0.73;95.23;100771.63;4946963;28;20573;-46
2021/01/02 10:16:00;;;;;;;28.85;16.70;;;;;;;0.62;94.43;100766.66;4944590;28;20052;-43
2021/01/02 10:18:30;;;;;;;29.38;16.90;;;;;;;1.56;91.05;100763.47;4942665;28;20054;-45
2021/01/02 10:20:57;;;;;;;30.58;17.38;;;;;;;1.58;89.54;100755.22;4944279;28;20043;-46
2021/01/02 10:23:24;;;;;;;29.25;17.73;;;;;;;0.79;93.14;100760.19;4944681;28;20058;-44
2021/01/02 10:25:50;;;;;;;26.90;17.33;;;;;;;0.94;92.45;100766.25;4946582;28;20066;-44
2021/01/02 10:28:17;;;;;;;30.05;18.33;;;;;;;0.89;94.51;100760.03;4944422;28;20449;-47
2021/01/02 10:30:43;;;;;;;28.20;17.23;;;;;;;1.93;90.33;100757.38;4943591;28;20051;-45
2021/01/02 10:33:10;;;;;;;29.77;17.52;;;;;;;1.43;91.89;100759.28;4944269;28;20377;-47
2021/01/02 10:35:36;;;;;;;32.03;16.83;;;;;;;1.36;93.55;100758.06;4944432;28;20058;-43
2021/01/02 10:38:03;;;;;;;26.02;15.50;;;;;;;1.63;92.29;100753.00;4948492;28;20062;-45
2021/01/02 10:40:30;;;;;;;23.55;14.65;;;;;;;2.27;87.33;100756.94;4942259;28;20466;-46
2021/01/02 10:42:56;;;;;;;27.10;16.45;;;;;;;1.05;94.27;100757.72;4947202;28;20080;-45
2021/01/02 10:45:23;;;;;;;28.80;18.10;;;;;;;0.83;95.67;100750.41;4944449;28;20153;-45
2021/01/02 10:47:49;;;;;;;30.75;17.38;;;;;;;1.28;96.19;100762.59;4945988;28;20085;-48
2021/01/02 10:50:16;;;;;;;31.92;18.02;;;;;;;1.44;94.49;100754.38;4937831;28;20054;-48
2021/01/02 10:52:43;;;;;;;27.70;16.95;;;;;;;1.50;93.87;100763.97;4941615;28;20058;-49
2021/01/02 10:55:09;;;;;;;26.55;15.80;;;;;;;1.67;94.06;100753.28;4946156;28;20059;-46
2021/01/02 10:57:36;;;;;;;27.85;16.40;;;;;;;1.06;94.51;100749.38;4941545;28;20047;-46
2021/01/02 11:00:06;;;;;;;28.70;17.88;;;;;;;1.45;93.93;100750.19;4946080;28;20051;-46
2021/01/02 11:02:33;;;;;;;30.40;18.83;;;;;;;0.93;92.68;100751.91;4946362;28;20457;-45
2021/01/02 11:04:59;;;;;;;26.17;17.02;;;;;;;1.17;92.78;100753.47;4942729;28;20426;-45
2021/01/02 11:07:26;;;;;;;30.65;18.10;;;;;;;0.91;94.48;100751.78;4946198;28;20055;-43
2021/01/02 11:09:53;;;;;;;29.88;18.33;;;;;;;1.38;92.85;100753.97;4941533;28;20422;-44
2021/01/02 11:12:22;;;;;;;29.08;18.02;;;;;;;1.65;92.44;100747.25;4949457;28;20588;-43
2021/01/02 11:14:52;;;;;;;29.13;18.73;;;;;;;1.40;92.93;100746.50;4946359;28;20437;-44
2021/01/02 11:17:20;;;;;;;28.05;17.45;;;;;;;1.87;92.05;100743.53;4945213;28;20042;-43
2021/01/02 11:19:46;;;;;;;29.83;17.58;;;;;;;1.76;90.38;100743.75;4940689;28;20321;-45
2021/01/02 11:22:14;;;;;;;31.20;18.08;;;;;;;1.91;90.92;100740.41;4944099;28;20391;-44
2021/01/02 11:24:43;;;;;;;32.67;18.73;;;;;;;2.21;86.71;100747.28;4937582;28;20077;-47
2021/01/02 11:27:10;;;;;;;31.08;18.33;;;;;;;2.41;89.25;100733.34;4944897;28;20418;-46
2021/01/02 11:29:37;;;;;;;27.83;17.20;;;;;;;2.57;86.52;100739.28;4946215;28;20469;-44
2021/01/02 11:32:07;;;;;;;29.90;18.13;;;;;;;1.89;88.25;100740.31;4946023;28;20047;-44